Time;durP1;ratioP1;P1;durP2;ratioP2;P2;SDS_P1;SDS_P2;PMS_P1;PMS_P2;Temp;Humidity;BMP_temperature;BMP_pressure;BME280_temperature;BME280_humidity;BME280_pressure;Samples;Min_cycle;Max_cycle;Signal;HPM_P1;HPM_P2
2022/07/17 00:01:12;;;;;;;0.63;0.40;;;25.00;37.10;;;;;;5013074;28;20110;-57
2022/07/17 00:03:38;;;;;;;1.48;0.40;;;25.00;37.10;;;;;;5015825;28;20026;-53
2022/07/17 00:06:04;;;;;;;1.00;0.45;;;25.00;37.80;;;;;;5014599;28;20119;-56
2022/07/17 00:08:31;;;;;;;1.35;0.43;;;25.00;37.10;;;;;;5015156;28;20037;-55
2022/07/17 00:10:58;;;;;;;1.60;0.75;;;25.00;37.10;;;;;;5013104;28;20033;-53
2022/07/17 00:13:25;;;;;;;0.73;0.50;;;25.00;37.20;;;;;;5012966;28;20026;-57
2022/07/17 00:15:51;;;;;;;1.42;0.50;;;25.00;37.10;;;;;;5015682;28;20029;-55
2022/07/17 00:18:17;;;;;;;1.63;0.45;;;25.00;37.10;;;;;;5015359;28;20049;-57
2022/07/17 00:20:43;;;;;;;0.50;0.30;;;25.00;37.20;;;;;;5015078;28;20045;-53
2022/07/17 00:23:10;;;;;;;1.33;0.32;;;24.90;37.10;;;;;;5015553;28;20033;-54
2022/07/17 00:25:36;;;;;;;1.10;0.40;;;24.90;37.20;;;;;;5013428;28;20030;-52
2022/07/17 00:28:02;;;;;;;0.40;0.30;;;25.00;37.20;;;;;;5013959;28;20518;-55
2022/07/17 00:30:28;;;;;;;0.98;0.43;;;24.90;37.20;;;;;;5015217;28;20060;-56
2022/07/17 00:32:54;;;;;;;1.58;0.47;;;24.90;37.20;;;;;;5015191;28;20037;-56
2022/07/17 00:35:20;;;;;;;1.27;0.40;;;24.90;37.20;;;;;;5014385;28;20034;-55
2022/07/17 00:37:47;;;;;;;0.57;0.40;;;24.90;37.20;;;;;;5011793;28;20504;-52
2022/07/17 00:40:22;;;;;;;0.77;0.50;;;24.90;37.20;;;;;;5015367;28;20095;-56
2022/07/17 00:42:49;;;;;;;0.30;0.30;;;24.80;37.20;;;;;;5014297;28;20026;-55
2022/07/17 00:45:15;;;;;;;0.45;0.32;;;24.90;37.20;;;;;;5014387;28;20048;-57
2022/07/17 00:48:03;;;;;;;1.38;0.50;;;24.80;37.20;;;;;;5013356;28;20026;-52
2022/07/17 00:50:32;;;;;;;0.73;0.25;;;24.80;37.20;;;;;;4995621;28;20046;-56
2022/07/17 00:52:58;;;;;;;0.88;0.30;;;24.80;37.20;;;;;;4995249;28;20035;-57
2022/07/17 00:55:24;;;;;;;1.77;0.40;;;24.80;37.20;;;;;;4995635;28;20113;-57
2022/07/17 00:57:54;;;;;;;0.63;0.38;;;24.80;37.30;;;;;;5006700;28;20061;-54
2022/07/17 01:00:21;;;;;;;1.17;0.47;;;24.80;37.30;;;;;;5013814;28;20069;-57
2022/07/17 01:02:49;;;;;;;0.65;0.30;;;24.80;37.30;;;;;;5013965;28;20088;-57
2022/07/17 01:05:17;;;;;;;0.50;0.32;;;24.80;37.30;;;;;;5014963;28;20025;-56
2022/07/17 01:07:43;;;;;;;1.08;0.40;;;24.80;37.30;;;;;;5014930;28;20037;-57
2022/07/17 01:10:10;;;;;;;1.27;0.65;;;24.70;37.30;;;;;;5014773;28;20030;-55
2022/07/17 01:12:36;;;;;;;0.75;0.40;;;24.70;37.30;;;;;;5011933;28;20041;-57
2022/07/17 01:15:03;;;;;;;1.00;0.50;;;24.70;37.30;;;;;;5014599;28;20042;-51
2022/07/17 01:17:29;;;;;;;1.55;0.40;;;24.80;37.40;;;;;;5014127;28;20026;-57
2022/07/17 01:19:55;;;;;;;1.10;0.47;;;24.70;37.30;;;;;;5014068;28;20499;-56
2022/07/17 01:22:21;;;;;;;1.40;0.63;;;24.70;37.30;;;;;;5014755;28;20041;-54
2022/07/17 01:24:47;;;;;;;1.08;0.50;;;24.70;37.30;;;;;;5012207;28;20105;-49
2022/07/17 01:27:13;;;;;;;0.50;0.40;;;24.70;37.40;;;;;;5014584;28;20030;-54
2022/07/17 01:29:39;;;;;;;1.08;0.40;;;24.70;37.40;;;;;;5015059;28;20401;-55
2022/07/17 01:32:06;;;;;;;1.10;0.40;;;24.70;37.40;;;;;;5010004;28;20037;-57
2022/07/17 01:34:32;;;;;;;1.35;0.40;;;24.70;37.40;;;;;;5014439;28;20104;-54
2022/07/17 01:36:57;;;;;;;0.85;0.40;;;24.70;37.40;;;;;;5012514;28;20025;-58
2022/07/17 01:42:08;;;;;;;1.23;0.35;;;24.60;37.40;;;;;;5014687;28;20037;-57
2022/07/17 01:44:34;;;;;;;0.82;0.40;;;24.60;37.40;;;;;;5014636;28;20084;-54
2022/07/17 01:47:00;;;;;;;1.92;0.40;;;24.60;37.40;;;;;;5017290;28;20034;-52
2022/07/17 01:49:26;;;;;;;1.52;0.50;;;24.60;37.40;;;;;;5016935;28;20046;-58
2022/07/17 01:51:51;;;;;;;1.52;0.47;;;24.60;37.40;;;;;;5018094;28;20133;-55
2022/07/17 01:54:17;;;;;;;0.90;0.40;;;24.60;37.40;;;;;;5016508;28;20441;-53
2022/07/17 01:56:43;;;;;;;1.00;0.35;;;24.60;37.40;;;;;;5016916;28;20129;-54
2022/07/17 01:59:09;;;;;;;1.63;0.40;;;24.60;37.40;;;;;;5018015;28;20026;-59
2022/07/17 02:01:37;;;;;;;2.28;0.30;;;24.60;37.40;;;;;;5015068;28;20072;-53
2022/07/17 02:04:03;;;;;;;1.02;0.55;;;24.50;37.40;;;;;;5017299;28;20030;-58
2022/07/17 02:06:29;;;;;;;1.05;0.47;;;24.60;37.40;;;;;;5017904;28;20416;-57
2022/07/17 02:08:54;;;;;;;0.45;0.22;;;24.60;37.40;;;;;;5017784;28;20029;-53
2022/07/17 02:11:20;;;;;;;1.65;0.43;;;24.50;37.40;;;;;;5017527;28;20038;-55
2022/07/17 02:13:46;;;;;;;0.90;0.50;;;24.60;37.40;;;;;;5016158;28;20353;-54
2022/07/17 02:16:12;;;;;;;0.77;0.40;;;24.50;37.40;;;;;;5016764;28;20057;-52
2022/07/17 02:18:37;;;;;;;0.82;0.32;;;24.50;37.40;;;;;;5017353;28;20037;-54
2022/07/17 02:21:03;;;;;;;0.70;0.30;;;24.50;37.40;;;;;;5017745;28;20120;-58
2022/07/17 02:23:29;;;;;;;1.70;0.50;;;24.50;37.40;;;;;;5016900;28;20350;-55
2022/07/17 02:25:55;;;;;;;1.05;0.50;;;24.50;37.40;;;;;;5016601;28;20034;-54
2022/07/17 02:28:21;;;;;;;0.65;0.50;;;24.50;37.50;;;;;;5017534;28;20361;-54
2022/07/17 02:30:47;;;;;;;1.38;0.30;;;24.50;37.40;;;;;;5016810;28;20041;-55
2022/07/17 02:33:13;;;;;;;0.60;0.40;;;24.40;38.00;;;;;;5016476;28;20064;-55
2022/07/17 02:35:39;;;;;;;1.02;0.50;;;24.50;37.50;;;;;;5017279;28;20445;-52
2022/07/17 02:38:05;;;;;;;1.52;0.65;;;24.40;37.40;;;;;;5015071;28;20033;-52
2022/07/17 02:40:31;;;;;;;0.93;0.45;;;24.50;37.50;;;;;;5017496;28;20038;-50
2022/07/17 02:42:57;;;;;;;1.15;0.30;;;24.40;37.40;;;;;;5017000;28;20037;-55
2022/07/17 02:45:24;;;;;;;1.35;0.50;;;24.40;37.40;;;;;;5015885;28;20040;-51
2022/07/17 02:47:57;;;;;;;2.58;0.65;;;24.40;37.50;;;;;;5015349;28;20053;-49
2022/07/17 02:50:22;;;;;;;2.03;0.60;;;24.40;37.50;;;;;;5016592;28;20053;-53
2022/07/17 02:52:51;;;;;;;0.73;0.40;;;24.40;37.50;;;;;;5016562;28;20038;-51
2022/07/17 02:55:18;;;;;;;1.25;0.40;;;24.40;37.50;;;;;;5015492;28;20045;-58
2022/07/17 02:57:46;;;;;;;0.55;0.30;;;24.40;37.50;;;;;;5015432;28;20038;-54
2022/07/17 03:00:15;;;;;;;1.98;0.60;;;24.40;37.50;;;;;;5014049;28;20044;-57
2022/07/17 03:02:43;;;;;;;0.98;0.40;;;24.40;37.50;;;;;;5016660;28;20053;-56
2022/07/17 03:05:09;;;;;;;1.30;0.43;;;24.30;37.50;;;;;;5016381;28;20022;-53
2022/07/17 03:07:35;;;;;;;0.80;0.40;;;24.30;37.50;;;;;;5017007;28;20033;-55
2022/07/17 03:10:01;;;;;;;1.13;0.43;;;24.30;37.50;;;;;;5015711;28;20030;-54
2022/07/17 03:12:27;;;;;;;0.75;0.28;;;24.30;37.50;;;;;;5014260;28;20168;-57
2022/07/17 03:14:53;;;;;;;2.22;0.55;;;24.30;37.50;;;;;;5015506;28;20108;-55
2022/07/17 03:17:19;;;;;;;0.90;0.40;;;24.30;37.50;;;;;;5016119;28;20116;-54
2022/07/17 03:19:44;;;;;;;1.30;0.43;;;24.30;37.50;;;;;;5015829;28;20022;-53
2022/07/17 03:22:10;;;;;;;1.48;0.40;;;24.30;37.50;;;;;;5016631;28;20164;-56
2022/07/17 03:24:36;;;;;;;1.20;0.40;;;24.30;37.60;;;;;;5015120;28;20080;-53
2022/07/17 03:27:02;;;;;;;1.00;0.30;;;24.30;37.60;;;;;;5016425;28;20049;-54
2022/07/17 03:29:28;;;;;;;0.82;0.30;;;24.30;37.60;;;;;;5014037;28;20028;-53
2022/07/17 03:31:54;;;;;;;0.60;0.30;;;24.30;37.60;;;;;;5015731;28;20096;-57
2022/07/17 03:34:19;;;;;;;1.50;0.55;;;24.30;37.60;;;;;;5015914;28;20030;-54
2022/07/17 03:36:46;;;;;;;1.42;0.50;;;24.20;37.60;;;;;;5014288;28;20464;-56
2022/07/17 03:39:12;;;;;;;0.73;0.20;;;24.20;37.50;;;;;;5016124;28;20129;-56
2022/07/17 03:41:38;;;;;;;0.73;0.40;;;24.20;37.50;;;;;;5016004;28;20113;-57
2022/07/17 03:44:04;;;;;;;2.10;0.55;;;24.20;37.50;;;;;;5014750;28;20060;-53
2022/07/17 03:46:30;;;;;;;1.13;0.45;;;24.20;37.60;;;;;;5015357;28;20034;-54
2022/07/17 03:48:55;;;;;;;1.05;0.35;;;24.20;37.50;;;;;;5013958;28;20057;-57
2022/07/17 03:51:21;;;;;;;1.98;0.50;;;24.20;37.60;;;;;;5015774;28;20433;-53
2022/07/17 03:53:47;;;;;;;1.90;0.40;;;24.20;37.60;;;;;;5015895;28;20133;-54
2022/07/17 03:56:13;;;;;;;0.60;0.30;;;24.20;37.60;;;;;;5015474;28;20468;-54
2022/07/17 03:58:40;;;;;;;1.77;0.60;;;24.20;37.60;;;;;;5015137;28;20079;-50
2022/07/17 04:01:06;;;;;;;0.98;0.40;;;24.20;37.60;;;;;;5014591;28;20036;-54
2022/07/17 04:03:31;;;;;;;1.80;0.40;;;24.20;37.60;;;;;;5015421;28;20029;-55
2022/07/17 04:05:57;;;;;;;1.08;0.40;;;24.10;37.70;;;;;;5011426;28;20365;-57
2022/07/17 04:08:23;;;;;;;0.90;0.40;;;24.10;37.60;;;;;;5015594;28;20029;-56
2022/07/17 04:10:49;;;;;;;1.00;0.50;;;24.10;37.60;;;;;;5015530;28;20041;-53
2022/07/17 04:13:15;;;;;;;1.27;0.65;;;24.10;37.60;;;;;;5015043;28;20048;-53
2022/07/17 04:15:49;;;;;;;1.13;0.40;;;24.10;37.60;;;;;;5013265;28;20030;-52
2022/07/17 04:18:20;;;;;;;0.95;0.40;;;24.10;37.60;;;;;;5015372;28;20029;-53
2022/07/17 04:20:47;;;;;;;0.50;0.20;;;24.10;37.70;;;;;;5013734;28;20034;-56
2022/07/17 04:23:13;;;;;;;1.15;0.40;;;24.10;37.60;;;;;;5013208;28;20460;-54
2022/07/17 04:25:39;;;;;;;0.52;0.40;;;24.10;38.20;;;;;;5015412;28;20030;-52
2022/07/17 04:28:05;;;;;;;1.67;0.50;;;24.10;37.70;;;;;;5013185;28;20373;-58
2022/07/17 04:30:31;;;;;;;1.17;0.55;;;24.10;37.60;;;;;;5015458;28;20084;-56
2022/07/17 04:32:57;;;;;;;0.55;0.40;;;24.10;37.70;;;;;;5015231;28;20049;-54
2022/07/17 04:35:23;;;;;;;0.70;0.40;;;24.10;37.70;;;;;;5013753;28;20025;-57
2022/07/17 04:37:49;;;;;;;0.90;0.40;;;24.10;37.70;;;;;;5014499;28;20044;-53
2022/07/17 04:40:15;;;;;;;1.38;0.63;;;24.10;37.70;;;;;;5013675;28;20061;-54
2022/07/17 04:42:40;;;;;;;1.92;0.40;;;24.10;37.70;;;;;;5015042;28;20034;-55
2022/07/17 04:45:07;;;;;;;1.77;0.55;;;24.10;37.70;;;;;;5015354;28;20026;-54
2022/07/17 04:47:34;;;;;;;2.15;0.60;;;24.10;37.70;;;;;;5015427;28;20026;-51
2022/07/17 04:50:00;;;;;;;1.30;0.40;;;24.10;37.70;;;;;;5012868;28;20049;-55
2022/07/17 04:52:26;;;;;;;1.10;0.32;;;24.10;37.70;;;;;;5013788;28;20075;-50
2022/07/17 04:54:52;;;;;;;1.25;0.40;;;24.10;37.70;;;;;;5015149;28;20456;-55
2022/07/17 04:57:18;;;;;;;1.15;0.38;;;24.10;37.70;;;;;;5015138;28;20099;-56
2022/07/17 04:59:43;;;;;;;1.65;0.47;;;24.10;37.70;;;;;;5014066;28;20342;-56
2022/07/17 05:02:09;;;;;;;2.38;0.60;;;24.10;37.70;;;;;;5012890;28;20041;-53
2022/07/17 05:04:35;;;;;;;2.03;0.50;;;24.00;37.70;;;;;;5013480;28;20045;-56
2022/07/17 05:07:01;;;;;;;1.67;0.63;;;24.10;37.80;;;;;;5013756;28;20030;-58
2022/07/17 05:09:27;;;;;;;1.52;0.52;;;24.00;37.70;;;;;;5014878;28;20030;-59
2022/07/17 05:11:53;;;;;;;1.80;0.50;;;24.00;37.70;;;;;;5014535;28;20130;-54
2022/07/17 05:14:18;;;;;;;2.38;0.43;;;24.10;37.80;;;;;;5013212;28;20037;-55
2022/07/17 05:16:44;;;;;;;0.85;0.40;;;24.00;37.70;;;;;;5014070;28;20030;-55
2022/07/17 05:19:10;;;;;;;1.13;0.60;;;24.00;37.80;;;;;;5013739;28;20342;-56
2022/07/17 05:21:36;;;;;;;1.33;0.52;;;24.00;37.80;;;;;;5018254;28;20029;-53
2022/07/17 05:24:02;;;;;;;2.25;0.70;;;24.00;37.80;;;;;;5019069;28;20099;-53
2022/07/17 05:26:27;;;;;;;1.63;0.50;;;24.00;37.80;;;;;;5017402;28;21030;-55
2022/07/17 05:28:53;;;;;;;2.22;0.47;;;24.00;37.80;;;;;;5018535;28;20052;-55
2022/07/17 05:31:19;;;;;;;2.05;0.50;;;24.00;37.80;;;;;;5018551;28;20048;-56
2022/07/17 05:33:45;;;;;;;0.82;0.40;;;24.00;37.80;;;;;;5017713;28;20034;-54
2022/07/17 05:36:11;;;;;;;1.88;0.60;;;24.10;37.90;;;;;;5017131;28;20484;-54
2022/07/17 05:38:37;;;;;;;1.00;0.40;;;24.00;37.80;;;;;;5018034;28;20441;-55
2022/07/17 05:41:04;;;;;;;2.42;0.43;;;24.00;37.90;;;;;;5017752;28;20117;-57
2022/07/17 05:43:30;;;;;;;0.85;0.30;;;24.00;37.90;;;;;;5018455;28;20038;-53
2022/07/17 05:45:57;;;;;;;1.08;0.40;;;24.00;37.90;;;;;;5016574;28;20109;-55
2022/07/17 05:48:23;;;;;;;3.40;0.60;;;24.00;37.90;;;;;;5015961;28;20057;-54
2022/07/17 05:50:49;;;;;;;1.52;0.50;;;24.00;37.90;;;;;;5017733;28;20121;-57
2022/07/17 05:53:16;;;;;;;1.60;0.50;;;24.00;38.00;;;;;;5018014;28;20129;-57
2022/07/17 05:55:42;;;;;;;1.35;0.40;;;24.00;38.00;;;;;;5017765;28;20037;-55
2022/07/17 05:58:08;;;;;;;0.85;0.47;;;24.00;38.00;;;;;;5015575;28;20077;-55
2022/07/17 06:00:34;;;;;;;1.88;0.60;;;24.00;38.00;;;;;;4998210;28;20038;-54
2022/07/17 06:03:01;;;;;;;0.60;0.40;;;24.00;38.10;;;;;;5016548;28;20140;-53
2022/07/17 06:05:27;;;;;;;1.98;0.30;;;24.00;38.10;;;;;;5017951;28;20026;-54
2022/07/17 06:07:54;;;;;;;1.75;0.60;;;24.00;38.10;;;;;;5017778;28;20087;-55
2022/07/17 06:10:19;;;;;;;0.75;0.32;;;24.00;38.10;;;;;;5017023;28;20057;-50
2022/07/17 06:12:45;;;;;;;2.28;0.60;;;24.00;38.20;;;;;;5016965;28;20441;-55
2022/07/17 06:15:11;;;;;;;2.70;0.50;;;24.00;38.20;;;;;;5015016;28;20087;-52
2022/07/17 06:17:37;;;;;;;1.00;0.30;;;24.00;38.20;;;;;;5017635;28;20042;-55
2022/07/17 06:20:04;;;;;;;0.88;0.40;;;24.00;38.20;;;;;;5017493;28;20041;-57
2022/07/17 06:22:30;;;;;;;2.00;0.55;;;24.00;38.20;;;;;;5018003;28;20056;-54
2022/07/17 06:24:56;;;;;;;1.98;0.35;;;24.00;38.20;;;;;;5016738;28;20029;-51
2022/07/17 06:27:22;;;;;;;1.90;0.43;;;24.00;38.30;;;;;;5016660;28;20044;-55
2022/07/17 06:29:47;;;;;;;1.33;0.50;;;24.00;38.30;;;;;;5014625;28;20072;-53
2022/07/17 06:32:13;;;;;;;2.25;0.50;;;24.00;38.30;;;;;;5014730;28;20044;-52
2022/07/17 06:34:41;;;;;;;1.23;0.40;;;24.00;38.40;;;;;;5014024;28;20029;-54
2022/07/17 06:37:08;;;;;;;2.92;0.68;;;23.90;38.40;;;;;;5011018;28;20096;-52
2022/07/17 06:39:34;;;;;;;1.40;0.47;;;24.00;38.50;;;;;;5012307;28;20030;-54
2022/07/17 06:42:18;;;;;;;;;;;24.00;38.50;;;;;;5017073;28;20336;-49
2022/07/17 06:44:44;;;;;;;1.30;0.30;;;24.00;38.40;;;;;;5016544;28;19910;-54
2022/07/17 06:47:10;;;;;;;2.50;0.40;;;24.00;38.50;;;;;;5016235;28;20026;-57
2022/07/17 06:49:36;;;;;;;2.05;0.68;;;24.00;38.50;;;;;;5014310;28;20046;-54
2022/07/17 06:52:02;;;;;;;1.27;0.40;;;24.00;38.50;;;;;;5015892;28;20093;-51
2022/07/17 06:54:27;;;;;;;1.13;0.60;;;24.00;38.50;;;;;;5015842;28;20357;-56
2022/07/17 06:56:53;;;;;;;1.70;0.40;;;24.00;38.50;;;;;;5009411;28;20030;-50
2022/07/17 06:59:20;;;;;;;1.08;0.50;;;24.00;38.60;;;;;;5011630;28;20326;-52
2022/07/17 07:01:47;;;;;;;0.75;0.30;;;24.00;38.60;;;;;;5011067;28;20451;-57
2022/07/17 07:04:14;;;;;;;2.35;0.73;;;24.10;38.70;;;;;;5013275;28;20026;-55
2022/07/17 07:06:40;;;;;;;0.90;0.43;;;24.10;38.70;;;;;;5012244;28;20040;-57
2022/07/17 07:09:06;;;;;;;1.95;0.52;;;24.10;38.60;;;;;;5012544;28;20484;-55
2022/07/17 07:11:33;;;;;;;1.05;0.35;;;24.20;39.30;;;;;;5010268;28;20500;-55
2022/07/17 07:14:00;;;;;;;1.17;0.50;;;24.20;38.90;;;;;;5015167;28;20031;-54
2022/07/17 07:16:29;;;;;;;1.10;0.40;;;24.20;38.60;;;;;;5006718;28;20061;-56
2022/07/17 07:18:57;;;;;;;1.38;0.55;;;24.20;38.60;;;;;;4998683;28;20121;-51
2022/07/17 07:21:26;;;;;;;1.40;0.52;;;24.20;38.60;;;;;;4996852;28;20027;-52
2022/07/17 07:23:54;;;;;;;1.15;0.38;;;24.20;38.60;;;;;;5002071;28;20025;-55
2022/07/17 07:26:21;;;;;;;0.70;0.40;;;24.20;38.60;;;;;;5014485;28;20026;-57
2022/07/17 07:28:47;;;;;;;1.73;0.50;;;24.20;38.60;;;;;;5014364;28;20034;-52
2022/07/17 07:31:13;;;;;;;1.55;0.50;;;24.20;38.60;;;;;;5013081;28;20360;-60
2022/07/17 07:33:39;;;;;;;1.42;0.50;;;24.30;38.60;;;;;;5012117;28;20030;-61
2022/07/17 07:36:05;;;;;;;1.52;0.65;;;24.30;38.60;;;;;;5013435;28;20434;-61
2022/07/17 07:38:33;;;;;;;1.45;0.47;;;24.30;38.60;;;;;;5012833;28;20090;-55
2022/07/17 07:40:59;;;;;;;1.52;0.50;;;24.30;38.60;;;;;;5011486;28;20030;-55
2022/07/17 07:43:25;;;;;;;1.67;0.60;;;24.30;38.50;;;;;;5012617;28;20037;-54
2022/07/17 07:45:51;;;;;;;1.20;0.57;;;24.30;38.60;;;;;;5013332;28;20065;-53
2022/07/17 07:48:17;;;;;;;1.75;0.77;;;24.30;38.50;;;;;;5013376;28;20054;-53
2022/07/17 07:50:43;;;;;;;2.40;0.70;;;24.30;38.60;;;;;;5012523;28;20325;-57
2022/07/17 07:53:09;;;;;;;1.55;0.47;;;24.30;38.50;;;;;;5013969;28;20041;-52
2022/07/17 07:55:35;;;;;;;1.33;0.77;;;24.30;38.50;;;;;;5013906;28;20116;-54
2022/07/17 07:58:06;;;;;;;1.73;0.70;;;24.30;38.50;;;;;;5015276;28;20408;-55
2022/07/17 08:00:32;;;;;;;2.15;0.50;;;24.40;38.50;;;;;;5013428;28;20038;-56
2022/07/17 08:03:00;;;;;;;0.95;0.60;;;24.40;38.50;;;;;;5012603;28;20030;-53
2022/07/17 08:05:26;;;;;;;1.30;0.47;;;24.40;38.50;;;;;;5009624;28;20025;-55
2022/07/17 08:07:53;;;;;;;1.08;0.43;;;24.40;38.50;;;;;;5012771;28;20029;-47
2022/07/17 08:10:19;;;;;;;3.83;0.80;;;24.40;38.50;;;;;;5014493;28;20113;-50
2022/07/17 08:12:45;;;;;;;1.27;0.60;;;24.40;38.50;;;;;;5012438;28;20550;-54
2022/07/17 08:15:12;;;;;;;1.73;0.60;;;24.40;38.50;;;;;;5015292;28;20045;-47
2022/07/17 08:17:37;;;;;;;1.25;0.63;;;24.40;38.50;;;;;;5014508;28;20069;-52
2022/07/17 08:20:04;;;;;;;2.95;0.80;;;24.40;38.50;;;;;;5014256;28;20054;-47
2022/07/17 08:22:30;;;;;;;0.57;0.50;;;24.40;38.40;;;;;;5010896;28;20053;-53
2022/07/17 08:25:03;;;;;;;2.00;0.40;;;24.40;38.50;;;;;;5015398;28;20088;-54
2022/07/17 08:27:37;;;;;;;1.92;0.40;;;24.40;38.50;;;;;;5014811;28;20411;-46
2022/07/17 08:30:05;;;;;;;1.92;0.50;;;24.40;38.40;;;;;;5014434;28;20441;-51
2022/07/17 08:32:30;;;;;;;1.17;0.43;;;24.40;38.40;;;;;;5015403;28;20172;-52
2022/07/17 08:34:56;;;;;;;1.42;0.47;;;24.40;38.40;;;;;;5014447;28;20112;-50
2022/07/17 08:37:24;;;;;;;0.95;0.40;;;24.40;38.30;;;;;;5014026;28;20030;-51
2022/07/17 08:39:50;;;;;;;2.38;0.50;;;24.40;38.30;;;;;;5015155;28;20117;-47
2022/07/17 08:42:16;;;;;;;1.85;0.80;;;24.40;38.20;;;;;;5015483;28;20089;-55
2022/07/17 08:44:42;;;;;;;1.92;0.60;;;24.50;38.30;;;;;;5014939;28;20057;-52
2022/07/17 08:47:10;;;;;;;1.73;0.47;;;24.50;38.20;;;;;;5015449;28;20030;-51
2022/07/17 08:49:43;;;;;;;1.60;0.50;;;24.40;38.20;;;;;;5014571;28;20070;-50
2022/07/17 08:52:10;;;;;;;1.92;0.50;;;24.50;38.20;;;;;;5013435;28;20453;-54
2022/07/17 08:54:42;;;;;;;1.27;0.38;;;24.50;38.20;;;;;;5016075;28;20030;-51
2022/07/17 08:57:11;;;;;;;1.77;0.80;;;24.50;38.20;;;;;;5018633;28;20112;-51
2022/07/17 08:59:37;;;;;;;0.65;0.40;;;24.50;38.10;;;;;;5019208;28;20029;-48
2022/07/17 09:02:03;;;;;;;1.25;0.45;;;24.50;38.10;;;;;;5014340;28;20030;-51
2022/07/17 09:04:30;;;;;;;0.90;0.50;;;24.50;38.10;;;;;;5008800;28;20345;-50
2022/07/17 09:07:05;;;;;;;1.52;0.77;;;24.50;38.10;;;;;;5012532;28;20025;-56
2022/07/17 09:09:33;;;;;;;0.82;0.30;;;24.50;38.10;;;;;;5012479;28;20076;-51
2022/07/17 09:12:01;;;;;;;1.30;0.68;;;24.60;38.10;;;;;;5010553;28;20041;-57
2022/07/17 09:14:41;;;;;;;4.70;1.48;;;24.60;38.10;;;;;;5012299;28;20033;-52
2022/07/17 09:17:10;;;;;;;3.95;1.67;;;24.60;38.20;;;;;;5012391;28;20034;-53
2022/07/17 09:19:46;;;;;;;7.80;2.10;;;24.60;38.40;;;;;;5013170;28;20365;-53
2022/07/17 09:22:13;;;;;;;7.43;3.17;;;24.70;38.60;;;;;;5013654;28;20414;-56
2022/07/17 09:24:51;;;;;;;5.10;2.35;;;24.70;38.90;;;;;;5014303;28;20144;-50
2022/07/17 09:27:32;;;;;;;7.32;3.35;;;24.70;39.10;;;;;;5012860;28;20072;-57
2022/07/17 09:30:04;;;;;;;10.32;3.80;;;24.80;39.40;;;;;;5014311;28;20137;-57
2022/07/17 09:32:37;;;;;;;7.57;3.17;;;24.80;39.50;;;;;;5016096;28;20361;-56
2022/07/17 09:35:06;;;;;;;6.20;3.05;;;24.90;39.80;;;;;;5012724;28;20472;-53
2022/07/17 09:37:34;;;;;;;9.82;3.15;;;24.90;39.90;;;;;;5012441;28;20041;-55
2022/07/17 09:40:01;;;;;;;7.20;2.83;;;24.90;39.90;;;;;;5016900;28;20036;-52
2022/07/17 09:42:31;;;;;;;9.07;3.28;;;25.00;40.00;;;;;;5012572;28;20033;-55
2022/07/17 09:45:02;;;;;;;10.07;4.18;;;25.00;40.30;;;;;;5011942;28;20311;-55
2022/07/17 09:47:29;;;;;;;9.80;4.32;;;25.00;40.40;;;;;;5013273;28;20033;-55
2022/07/17 09:49:56;;;;;;;9.10;4.32;;;25.00;40.60;;;;;;5013617;28;20042;-54
2022/07/17 09:52:31;;;;;;;8.68;4.57;;;25.10;40.70;;;;;;5009108;28;20069;-49
2022/07/17 09:54:58;;;;;;;8.18;3.88;;;25.10;40.70;;;;;;5014263;28;20200;-53
2022/07/17 09:57:32;;;;;;;6.22;3.35;;;25.10;40.60;;;;;;5015159;28;20025;-57
2022/07/17 10:00:11;;;;;;;9.75;4.63;;;25.20;40.50;;;;;;5010527;28;20044;-57
2022/07/17 10:02:41;;;;;;;10.52;5.00;;;25.20;40.60;;;;;;5010847;28;20055;-60
2022/07/17 10:05:17;;;;;;;7.95;4.40;;;25.20;40.60;;;;;;5009883;28;20034;-60
2022/07/17 10:07:45;;;;;;;10.02;5.03;;;25.20;41.30;;;;;;5013472;28;20077;-59
2022/07/17 10:10:12;;;;;;;7.95;4.70;;;25.30;40.90;;;;;;5013215;28;20026;-57
2022/07/17 10:12:40;;;;;;;8.98;4.80;;;25.30;41.00;;;;;;5012380;28;20038;-57
2022/07/17 10:15:07;;;;;;;6.60;3.83;;;25.30;41.10;;;;;;5010149;28;20062;-57
2022/07/17 10:17:33;;;;;;;6.63;3.40;;;25.40;41.20;;;;;;5017564;28;20030;-58
2022/07/17 10:20:00;;;;;;;6.57;3.28;;;25.40;41.10;;;;;;5016057;28;20105;-59
2022/07/17 10:22:26;;;;;;;5.15;2.83;;;25.40;41.00;;;;;;5012932;28;20026;-55
2022/07/17 10:24:56;;;;;;;4.45;2.22;;;25.40;40.80;;;;;;5007278;28;20044;-56
2022/07/17 10:27:25;;;;;;;5.30;2.55;;;25.50;40.80;;;;;;5013520;28;20144;-57
2022/07/17 10:30:09;;;;;;;4.18;2.40;;;25.40;40.60;;;;;;5011228;28;20038;-58
2022/07/17 10:32:35;;;;;;;;;;;25.50;40.60;;;;;;5028279;28;20397;-56
2022/07/17 10:35:05;;;;;;;6.10;1.90;;;25.40;40.50;;;;;;5010592;28;19909;-54
2022/07/17 10:37:33;;;;;;;3.60;1.55;;;25.40;40.40;;;;;;5013590;28;20030;-54
2022/07/17 10:40:16;;;;;;;3.53;1.45;;;25.40;40.30;;;;;;5011905;28;20416;-56
2022/07/17 10:43:04;;;;;;;4.93;1.70;;;25.50;40.20;;;;;;5010506;28;20041;-55
2022/07/17 10:45:34;;;;;;;3.58;1.88;;;25.50;40.10;;;;;;5006872;28;20026;-54
2022/07/17 10:48:07;;;;;;;2.65;1.17;;;25.40;40.00;;;;;;5010650;28;20030;-53
2022/07/17 10:50:36;;;;;;;2.13;1.25;;;25.40;39.80;;;;;;5009974;28;20396;-51
2022/07/17 10:53:23;;;;;;;2.17;1.38;;;25.50;39.90;;;;;;5010053;28;20033;-56
2022/07/17 10:55:58;;;;;;;2.35;1.23;;;25.50;39.80;;;;;;5011611;28;20045;-57
2022/07/17 10:58:28;;;;;;;2.45;1.40;;;25.50;39.80;;;;;;5011383;28;20100;-58
2022/07/17 11:01:01;;;;;;;3.60;1.08;;;25.50;39.70;;;;;;5009074;28;20029;-54
2022/07/17 11:03:30;;;;;;;2.90;1.20;;;25.50;39.60;;;;;;5010374;28;20105;-53
2022/07/17 11:06:12;;;;;;;1.90;1.10;;;25.50;39.60;;;;;;5011458;28;20457;-61
2022/07/17 11:08:45;;;;;;;2.45;1.20;;;25.50;39.50;;;;;;5012778;28;20030;-57
2022/07/17 11:11:11;;;;;;;2.92;1.02;;;25.50;39.50;;;;;;5013265;28;20014;-59
2022/07/17 11:13:44;;;;;;;1.73;0.90;;;25.50;39.40;;;;;;5010836;28;20195;-61
2022/07/17 11:16:11;;;;;;;2.17;1.08;;;25.50;39.30;;;;;;5012908;28;20113;-60
2022/07/17 11:18:51;;;;;;;2.13;1.20;;;25.50;39.30;;;;;;5013700;28;20018;-60
2022/07/17 11:21:20;;;;;;;1.25;0.73;;;25.50;39.20;;;;;;5004331;28;20046;-58
2022/07/17 11:23:55;;;;;;;2.65;0.70;;;25.50;39.20;;;;;;5012537;28;20507;-58
2022/07/17 11:26:23;;;;;;;1.73;0.80;;;25.50;39.10;;;;;;5013758;28;20032;-57
2022/07/17 11:28:51;;;;;;;2.03;0.70;;;25.50;39.10;;;;;;5012286;28;20457;-60
2022/07/17 11:31:30;;;;;;;1.40;0.77;;;25.60;39.20;;;;;;5011897;28;20334;-59
2022/07/17 11:34:05;;;;;;;1.75;0.68;;;25.50;39.00;;;;;;5012094;28;20025;-60
2022/07/17 11:36:37;;;;;;;1.58;0.70;;;25.50;39.00;;;;;;5013422;28;20026;-61
2022/07/17 11:39:18;;;;;;;0.98;0.60;;;25.60;39.30;;;;;;5012056;28;20480;-55
2022/07/17 11:41:53;;;;;;;0.88;0.70;;;25.50;38.90;;;;;;5012095;28;20033;-60
2022/07/17 11:44:43;;;;;;;0.63;0.50;;;25.60;39.00;;;;;;5014757;28;20041;-59
2022/07/17 11:47:11;;;;;;;0.80;0.50;;;25.60;38.90;;;;;;5010709;28;20064;-61
2022/07/17 11:49:42;;;;;;;1.15;0.40;;;25.60;38.90;;;;;;5012791;28;20049;-58
2022/07/17 11:52:11;;;;;;;0.85;0.55;;;25.60;38.90;;;;;;5010379;28;20377;-57
2022/07/17 11:54:49;;;;;;;1.35;0.55;;;25.60;38.90;;;;;;5012487;28;20701;-56
2022/07/17 11:57:17;;;;;;;1.63;0.47;;;25.60;38.90;;;;;;5011190;28;20049;-59
2022/07/17 11:59:47;;;;;;;2.42;0.70;;;25.60;39.00;;;;;;5012321;28;20101;-57
2022/07/17 12:02:28;;;;;;;1.77;0.70;;;25.60;39.00;;;;;;5012054;28;20476;-59
2022/07/17 12:04:56;;;;;;;1.08;0.57;;;25.60;38.90;;;;;;5007387;28;20044;-55
2022/07/17 12:07:24;;;;;;;0.70;0.60;;;25.60;38.90;;;;;;5010708;28;20040;-55
2022/07/17 12:09:50;;;;;;;1.63;0.60;;;25.60;38.90;;;;;;5010503;28;20041;-58
2022/07/17 12:12:27;;;;;;;1.50;0.50;;;25.60;38.80;;;;;;5020972;28;20441;-57
2022/07/17 12:14:59;;;;;;;1.38;0.50;;;25.70;38.90;;;;;;5008807;28;20330;-48
2022/07/17 12:17:40;;;;;;;0.63;0.40;;;25.70;39.50;;;;;;5006099;28;20034;-57
2022/07/17 12:20:08;;;;;;;0.52;0.35;;;25.70;38.80;;;;;;5007599;28;20030;-55
2022/07/17 12:22:46;;;;;;;0.60;0.35;;;25.70;38.80;;;;;;5009681;28;20404;-54
2022/07/17 12:25:32;;;;;;;1.20;0.40;;;25.70;38.70;;;;;;5010688;28;20026;-53
2022/07/17 12:27:58;;;;;;;1.08;0.47;;;25.70;38.60;;;;;;5008968;28;20425;-57
2022/07/17 12:30:23;;;;;;;0.68;0.50;;;25.70;38.60;;;;;;5010298;28;20026;-51
2022/07/17 12:32:50;;;;;;;1.30;0.60;;;25.70;38.50;;;;;;5007853;28;20042;-61
2022/07/17 12:35:16;;;;;;;2.80;0.70;;;25.60;37.90;;;;;;5010773;28;20125;-59
2022/07/17 12:37:42;;;;;;;1.65;0.68;;;25.40;38.00;;;;;;5008343;28;20042;-61
2022/07/17 12:40:09;;;;;;;2.53;0.55;;;25.10;38.40;;;;;;5010685;28;20433;-49
2022/07/17 12:42:35;;;;;;;1.35;0.50;;;24.90;38.90;;;;;;5010868;28;20064;-52
2022/07/17 12:45:01;;;;;;;1.38;0.52;;;24.70;39.30;;;;;;5010210;28;20346;-48
2022/07/17 12:47:28;;;;;;;1.25;0.50;;;24.60;39.50;;;;;;5008713;28;20064;-54
2022/07/17 12:49:53;;;;;;;0.90;0.57;;;24.50;39.70;;;;;;5009402;28;20049;-56
2022/07/17 12:52:19;;;;;;;0.80;0.45;;;24.50;39.60;;;;;;5008279;28;20112;-56
2022/07/17 12:54:45;;;;;;;1.30;0.40;;;24.60;39.60;;;;;;5009565;28;20045;-51